sensor_id;sensor_type;location;lat;lon;timestamp;P1;durP1;ratioP1;P2;durP2;ratioP2
58412;SDS011;44209;52.952;6.790;2023-03-11T00:00:22;9.13;;;2.40;;
58412;SDS011;44209;52.952;6.790;2023-03-11T00:02:50;7.70;;;2.90;;
58412;SDS011;44209;52.952;6.790;2023-03-11T00:05:22;5.50;;;2.23;;
58412;SDS011;44209;52.952;6.790;2023-03-11T00:07:50;4.43;;;2.20;;
58412;SDS011;44209;52.952;6.790;2023-03-11T00:10:17;8.60;;;2.20;;
58412;SDS011;44209;52.952;6.790;2023-03-11T00:12:45;5.37;;;2.20;;
58412;SDS011;44209;52.952;6.790;2023-03-11T00:15:11;6.70;;;2.50;;
58412;SDS011;44209;52.952;6.790;2023-03-11T00:17:37;5.30;;;1.93;;
58412;SDS011;44209;52.952;6.790;2023-03-11T00:20:04;7.33;;;2.80;;
58412;SDS011;44209;52.952;6.790;2023-03-11T00:22:31;5.10;;;2.27;;
58412;SDS011;44209;52.952;6.790;2023-03-11T00:24:57;7.87;;;2.30;;
58412;SDS011;44209;52.952;6.790;2023-03-11T00:27:23;7.70;;;2.67;;
58412;SDS011;44209;52.952;6.790;2023-03-11T00:29:49;5.23;;;2.47;;
58412;SDS011;44209;52.952;6.790;2023-03-11T00:32:14;6.03;;;2.47;;
58412;SDS011;44209;52.952;6.790;2023-03-11T00:34:40;6.70;;;2.20;;
58412;SDS011;44209;52.952;6.790;2023-03-11T00:37:06;4.03;;;2.10;;
58412;SDS011;44209;52.952;6.790;2023-03-11T00:39:32;6.73;;;1.97;;
58412;SDS011;44209;52.952;6.790;2023-03-11T00:41:58;9.50;;;2.30;;
58412;SDS011;44209;52.952;6.790;2023-03-11T00:44:24;4.30;;;2.20;;
58412;SDS011;44209;52.952;6.790;2023-03-11T00:46:49;5.27;;;1.93;;
58412;SDS011;44209;52.952;6.790;2023-03-11T00:49:15;6.50;;;2.20;;
58412;SDS011;44209;52.952;6.790;2023-03-11T00:51:41;7.33;;;2.67;;
58412;SDS011;44209;52.952;6.790;2023-03-11T00:54:06;6.60;;;2.30;;
58412;SDS011;44209;52.952;6.790;2023-03-11T00:56:32;8.43;;;2.77;;
58412;SDS011;44209;52.952;6.790;2023-03-11T00:58:58;7.47;;;2.30;;
58412;SDS011;44209;52.952;6.790;2023-03-11T01:01:23;7.47;;;2.23;;
58412;SDS011;44209;52.952;6.790;2023-03-11T01:03:49;6.80;;;2.10;;
58412;SDS011;44209;52.952;6.790;2023-03-11T01:06:15;7.90;;;2.37;;
58412;SDS011;44209;52.952;6.790;2023-03-11T01:08:40;6.70;;;2.60;;
58412;SDS011;44209;52.952;6.790;2023-03-11T01:11:07;6.07;;;2.17;;
58412;SDS011;44209;52.952;6.790;2023-03-11T01:13:33;5.60;;;2.30;;
58412;SDS011;44209;52.952;6.790;2023-03-11T01:15:59;5.43;;;2.47;;
58412;SDS011;44209;52.952;6.790;2023-03-11T01:18:25;8.07;;;2.57;;
58412;SDS011;44209;52.952;6.790;2023-03-11T01:20:51;7.27;;;2.20;;
58412;SDS011;44209;52.952;6.790;2023-03-11T01:23:18;5.77;;;2.07;;
58412;SDS011;44209;52.952;6.790;2023-03-11T01:25:44;6.13;;;2.30;;
58412;SDS011;44209;52.952;6.790;2023-03-11T01:28:10;6.73;;;2.43;;
58412;SDS011;44209;52.952;6.790;2023-03-11T01:30:37;6.10;;;2.17;;
58412;SDS011;44209;52.952;6.790;2023-03-11T01:33:04;5.07;;;2.27;;
58412;SDS011;44209;52.952;6.790;2023-03-11T01:35:31;3.13;;;2.13;;
58412;SDS011;44209;52.952;6.790;2023-03-11T01:37:57;7.07;;;2.20;;
58412;SDS011;44209;52.952;6.790;2023-03-11T01:40:31;7.97;;;2.33;;
58412;SDS011;44209;52.952;6.790;2023-03-11T01:43:00;8.13;;;2.30;;
58412;SDS011;44209;52.952;6.790;2023-03-11T01:45:34;8.30;;;2.13;;
58412;SDS011;44209;52.952;6.790;2023-03-11T01:48:12;4.70;;;2.00;;
58412;SDS011;44209;52.952;6.790;2023-03-11T01:50:39;6.33;;;2.33;;
58412;SDS011;44209;52.952;6.790;2023-03-11T01:53:09;6.68;;;2.10;;
58412;SDS011;44209;52.952;6.790;2023-03-11T01:55:35;3.93;;;2.10;;
58412;SDS011;44209;52.952;6.790;2023-03-11T01:58:03;5.67;;;2.10;;
58412;SDS011;44209;52.952;6.790;2023-03-11T02:00:32;6.57;;;2.00;;
58412;SDS011;44209;52.952;6.790;2023-03-11T02:02:59;6.17;;;2.00;;
58412;SDS011;44209;52.952;6.790;2023-03-11T02:05:30;4.50;;;2.20;;
58412;SDS011;44209;52.952;6.790;2023-03-11T02:07:57;5.87;;;2.13;;
58412;SDS011;44209;52.952;6.790;2023-03-11T02:10:24;5.77;;;1.70;;
58412;SDS011;44209;52.952;6.790;2023-03-11T02:12:50;6.90;;;2.00;;
58412;SDS011;44209;52.952;6.790;2023-03-11T02:15:16;4.23;;;2.00;;
58412;SDS011;44209;52.952;6.790;2023-03-11T02:17:42;8.90;;;2.13;;
58412;SDS011;44209;52.952;6.790;2023-03-11T02:22:55;7.30;;;1.90;;
58412;SDS011;44209;52.952;6.790;2023-03-11T02:25:31;5.33;;;1.80;;
58412;SDS011;44209;52.952;6.790;2023-03-11T02:28:06;5.17;;;1.90;;
58412;SDS011;44209;52.952;6.790;2023-03-11T02:30:35;5.53;;;1.70;;
58412;SDS011;44209;52.952;6.790;2023-03-11T02:33:03;4.93;;;1.70;;
58412;SDS011;44209;52.952;6.790;2023-03-11T02:35:29;4.33;;;1.90;;
58412;SDS011;44209;52.952;6.790;2023-03-11T02:37:55;5.17;;;1.83;;
58412;SDS011;44209;52.952;6.790;2023-03-11T02:40:30;7.90;;;2.10;;
58412;SDS011;44209;52.952;6.790;2023-03-11T02:43:03;4.03;;;1.80;;
58412;SDS011;44209;52.952;6.790;2023-03-11T02:45:32;5.67;;;1.67;;
58412;SDS011;44209;52.952;6.790;2023-03-11T02:48:00;4.50;;;1.70;;
58412;SDS011;44209;52.952;6.790;2023-03-11T02:50:26;6.60;;;1.90;;
58412;SDS011;44209;52.952;6.790;2023-03-11T02:52:53;6.20;;;1.83;;
58412;SDS011;44209;52.952;6.790;2023-03-11T02:55:19;4.97;;;1.80;;
58412;SDS011;44209;52.952;6.790;2023-03-11T02:57:45;7.90;;;1.70;;
58412;SDS011;44209;52.952;6.790;2023-03-11T03:00:13;4.83;;;2.00;;
58412;SDS011;44209;52.952;6.790;2023-03-11T03:02:43;3.53;;;1.50;;
58412;SDS011;44209;52.952;6.790;2023-03-11T03:05:09;4.43;;;2.00;;
58412;SDS011;44209;52.952;6.790;2023-03-11T03:07:35;6.73;;;2.07;;
58412;SDS011;44209;52.952;6.790;2023-03-11T03:10:02;5.10;;;1.87;;
58412;SDS011;44209;52.952;6.790;2023-03-11T03:12:28;2.83;;;1.20;;
58412;SDS011;44209;52.952;6.790;2023-03-11T03:14:54;4.33;;;1.80;;
58412;SDS011;44209;52.952;6.790;2023-03-11T03:17:22;7.53;;;1.73;;
58412;SDS011;44209;52.952;6.790;2023-03-11T03:19:48;5.57;;;1.80;;
58412;SDS011;44209;52.952;6.790;2023-03-11T03:22:14;4.83;;;2.07;;
58412;SDS011;44209;52.952;6.790;2023-03-11T03:24:40;6.13;;;1.93;;
58412;SDS011;44209;52.952;6.790;2023-03-11T03:27:05;6.77;;;1.70;;
58412;SDS011;44209;52.952;6.790;2023-03-11T03:29:31;6.73;;;1.67;;
58412;SDS011;44209;52.952;6.790;2023-03-11T03:31:57;4.20;;;1.77;;
58412;SDS011;44209;52.952;6.790;2023-03-11T03:34:22;5.97;;;1.77;;
58412;SDS011;44209;52.952;6.790;2023-03-11T03:36:48;2.47;;;1.60;;
58412;SDS011;44209;52.952;6.790;2023-03-11T03:39:14;4.37;;;2.00;;
58412;SDS011;44209;52.952;6.790;2023-03-11T03:41:40;3.33;;;1.47;;
58412;SDS011;44209;52.952;6.790;2023-03-11T03:44:05;3.57;;;1.50;;
58412;SDS011;44209;52.952;6.790;2023-03-11T03:46:31;5.40;;;1.80;;
58412;SDS011;44209;52.952;6.790;2023-03-11T03:48:57;6.77;;;1.80;;
58412;SDS011;44209;52.952;6.790;2023-03-11T03:51:23;3.90;;;1.47;;
58412;SDS011;44209;52.952;6.790;2023-03-11T03:53:48;7.13;;;1.87;;
58412;SDS011;44209;52.952;6.790;2023-03-11T03:56:15;3.47;;;1.50;;
58412;SDS011;44209;52.952;6.790;2023-03-11T03:58:41;3.57;;;1.70;;
58412;SDS011;44209;52.952;6.790;2023-03-11T04:01:08;5.00;;;1.73;;
58412;SDS011;44209;52.952;6.790;2023-03-11T04:03:35;3.43;;;1.50;;
58412;SDS011;44209;52.952;6.790;2023-03-11T04:08:31;3.43;;;1.80;;
58412;SDS011;44209;52.952;6.790;2023-03-11T04:10:57;4.13;;;1.40;;
58412;SDS011;44209;52.952;6.790;2023-03-11T04:13:23;3.70;;;2.10;;
58412;SDS011;44209;52.952;6.790;2023-03-11T04:15:48;4.07;;;1.90;;
58412;SDS011;44209;52.952;6.790;2023-03-11T04:18:14;5.60;;;1.87;;
58412;SDS011;44209;52.952;6.790;2023-03-11T04:20:40;6.33;;;1.87;;
58412;SDS011;44209;52.952;6.790;2023-03-11T04:23:06;2.80;;;1.60;;
58412;SDS011;44209;52.952;6.790;2023-03-11T04:25:31;5.03;;;1.67;;
58412;SDS011;44209;52.952;6.790;2023-03-11T04:27:58;4.57;;;1.90;;
58412;SDS011;44209;52.952;6.790;2023-03-11T04:30:24;3.37;;;1.90;;
58412;SDS011;44209;52.952;6.790;2023-03-11T04:32:50;4.63;;;1.53;;
58412;SDS011;44209;52.952;6.790;2023-03-11T04:35:15;4.63;;;1.70;;
58412;SDS011;44209;52.952;6.790;2023-03-11T04:37:41;3.53;;;1.90;;
58412;SDS011;44209;52.952;6.790;2023-03-11T04:40:07;3.77;;;1.40;;
58412;SDS011;44209;52.952;6.790;2023-03-11T04:42:35;4.57;;;1.70;;
58412;SDS011;44209;52.952;6.790;2023-03-11T04:45:01;4.63;;;1.60;;
58412;SDS011;44209;52.952;6.790;2023-03-11T04:47:27;4.87;;;1.63;;
58412;SDS011;44209;52.952;6.790;2023-03-11T04:49:56;3.23;;;1.63;;
58412;SDS011;44209;52.952;6.790;2023-03-11T04:52:21;4.10;;;1.60;;
58412;SDS011;44209;52.952;6.790;2023-03-11T04:54:47;7.07;;;2.10;;
58412;SDS011;44209;52.952;6.790;2023-03-11T04:57:13;2.97;;;1.57;;
58412;SDS011;44209;52.952;6.790;2023-03-11T04:59:39;4.63;;;1.47;;
58412;SDS011;44209;52.952;6.790;2023-03-11T05:02:04;4.57;;;1.80;;
58412;SDS011;44209;52.952;6.790;2023-03-11T05:04:30;3.77;;;2.20;;
58412;SDS011;44209;52.952;6.790;2023-03-11T05:06:56;5.73;;;1.53;;
58412;SDS011;44209;52.952;6.790;2023-03-11T05:09:21;2.23;;;1.43;;
58412;SDS011;44209;52.952;6.790;2023-03-11T05:11:47;5.07;;;1.70;;
58412;SDS011;44209;52.952;6.790;2023-03-11T05:14:13;4.37;;;1.70;;
58412;SDS011;44209;52.952;6.790;2023-03-11T05:16:39;3.73;;;1.47;;
58412;SDS011;44209;52.952;6.790;2023-03-11T05:19:04;4.97;;;1.70;;
58412;SDS011;44209;52.952;6.790;2023-03-11T05:21:50;2.47;;;1.50;;
58412;SDS011;44209;52.952;6.790;2023-03-11T05:24:16;5.23;;;1.77;;
58412;SDS011;44209;52.952;6.790;2023-03-11T05:26:41;5.87;;;1.90;;
58412;SDS011;44209;52.952;6.790;2023-03-11T05:29:07;6.73;;;1.80;;
58412;SDS011;44209;52.952;6.790;2023-03-11T05:31:33;3.80;;;1.33;;
58412;SDS011;44209;52.952;6.790;2023-03-11T05:33:59;4.23;;;1.40;;
58412;SDS011;44209;52.952;6.790;2023-03-11T05:36:24;3.90;;;1.40;;
58412;SDS011;44209;52.952;6.790;2023-03-11T05:38:50;3.90;;;1.47;;
58412;SDS011;44209;52.952;6.790;2023-03-11T05:41:17;7.63;;;1.90;;
58412;SDS011;44209;52.952;6.790;2023-03-11T05:43:43;4.87;;;1.57;;
58412;SDS011;44209;52.952;6.790;2023-03-11T05:46:09;4.97;;;1.60;;
58412;SDS011;44209;52.952;6.790;2023-03-11T05:48:36;3.43;;;1.50;;
58412;SDS011;44209;52.952;6.790;2023-03-11T05:51:08;6.03;;;1.70;;
58412;SDS011;44209;52.952;6.790;2023-03-11T05:53:35;7.70;;;1.70;;
58412;SDS011;44209;52.952;6.790;2023-03-11T05:56:01;2.97;;;1.90;;
58412;SDS011;44209;52.952;6.790;2023-03-11T05:58:28;2.07;;;1.40;;
58412;SDS011;44209;52.952;6.790;2023-03-11T06:00:55;4.63;;;1.83;;
58412;SDS011;44209;52.952;6.790;2023-03-11T06:03:21;3.97;;;1.60;;
58412;SDS011;44209;52.952;6.790;2023-03-11T06:05:47;3.23;;;1.50;;
58412;SDS011;44209;52.952;6.790;2023-03-11T06:08:14;6.00;;;1.77;;
58412;SDS011;44209;52.952;6.790;2023-03-11T06:10:40;5.70;;;2.10;;
58412;SDS011;44209;52.952;6.790;2023-03-11T06:13:07;3.10;;;1.70;;
58412;SDS011;44209;52.952;6.790;2023-03-11T06:15:34;4.70;;;1.70;;
58412;SDS011;44209;52.952;6.790;2023-03-11T06:18:01;3.93;;;1.60;;
58412;SDS011;44209;52.952;6.790;2023-03-11T06:20:27;2.87;;;1.73;;
58412;SDS011;44209;52.952;6.790;2023-03-11T06:22:53;3.67;;;1.67;;
58412;SDS011;44209;52.952;6.790;2023-03-11T06:25:19;6.70;;;1.70;;
58412;SDS011;44209;52.952;6.790;2023-03-11T06:27:48;3.13;;;1.40;;
58412;SDS011;44209;52.952;6.790;2023-03-11T06:30:16;4.22;;;1.60;;
58412;SDS011;44209;52.952;6.790;2023-03-11T06:32:46;5.07;;;1.50;;
58412;SDS011;44209;52.952;6.790;2023-03-11T06:35:12;3.53;;;1.63;;
58412;SDS011;44209;52.952;6.790;2023-03-11T06:37:38;2.07;;;1.40;;
58412;SDS011;44209;52.952;6.790;2023-03-11T06:40:05;4.03;;;2.10;;
58412;SDS011;44209;52.952;6.790;2023-03-11T06:42:33;4.03;;;1.63;;
58412;SDS011;44209;52.952;6.790;2023-03-11T06:45:00;4.57;;;1.70;;
58412;SDS011;44209;52.952;6.790;2023-03-11T06:47:26;4.37;;;1.40;;
58412;SDS011;44209;52.952;6.790;2023-03-11T06:49:51;6.00;;;1.80;;
58412;SDS011;44209;52.952;6.790;2023-03-11T06:52:17;3.97;;;1.70;;
58412;SDS011;44209;52.952;6.790;2023-03-11T06:54:43;5.90;;;1.83;;
58412;SDS011;44209;52.952;6.790;2023-03-11T06:57:09;6.20;;;1.80;;
58412;SDS011;44209;52.952;6.790;2023-03-11T06:59:35;4.87;;;1.50;;
58412;SDS011;44209;52.952;6.790;2023-03-11T07:02:02;7.53;;;1.90;;
58412;SDS011;44209;52.952;6.790;2023-03-11T07:04:29;4.07;;;1.70;;
58412;SDS011;44209;52.952;6.790;2023-03-11T07:06:55;3.67;;;1.90;;
58412;SDS011;44209;52.952;6.790;2023-03-11T07:09:21;7.03;;;1.60;;
58412;SDS011;44209;52.952;6.790;2023-03-11T07:11:49;4.57;;;1.70;;
58412;SDS011;44209;52.952;6.790;2023-03-11T07:14:16;5.53;;;1.70;;
58412;SDS011;44209;52.952;6.790;2023-03-11T07:16:43;4.37;;;1.67;;
58412;SDS011;44209;52.952;6.790;2023-03-11T07:19:09;1.97;;;1.47;;
58412;SDS011;44209;52.952;6.790;2023-03-11T07:21:36;3.63;;;1.70;;
58412;SDS011;44209;52.952;6.790;2023-03-11T07:24:02;3.47;;;1.57;;
58412;SDS011;44209;52.952;6.790;2023-03-11T07:26:29;4.50;;;1.43;;
58412;SDS011;44209;52.952;6.790;2023-03-11T07:28:56;5.97;;;1.50;;
58412;SDS011;44209;52.952;6.790;2023-03-11T07:31:23;3.93;;;1.73;;
58412;SDS011;44209;52.952;6.790;2023-03-11T07:33:50;3.93;;;1.23;;
58412;SDS011;44209;52.952;6.790;2023-03-11T07:36:18;3.47;;;1.63;;
58412;SDS011;44209;52.952;6.790;2023-03-11T07:38:45;5.63;;;1.80;;
58412;SDS011;44209;52.952;6.790;2023-03-11T07:41:12;4.03;;;2.03;;
58412;SDS011;44209;52.952;6.790;2023-03-11T07:43:39;3.53;;;1.67;;
58412;SDS011;44209;52.952;6.790;2023-03-11T07:46:09;7.40;;;2.53;;
58412;SDS011;44209;52.952;6.790;2023-03-11T07:48:37;3.90;;;2.03;;
58412;SDS011;44209;52.952;6.790;2023-03-11T07:51:05;5.20;;;1.87;;
58412;SDS011;44209;52.952;6.790;2023-03-11T07:53:34;2.77;;;1.60;;
58412;SDS011;44209;52.952;6.790;2023-03-11T07:56:00;8.50;;;1.73;;
58412;SDS011;44209;52.952;6.790;2023-03-11T07:58:27;4.80;;;1.93;;
58412;SDS011;44209;52.952;6.790;2023-03-11T08:00:53;7.70;;;1.80;;
58412;SDS011;44209;52.952;6.790;2023-03-11T08:03:21;6.00;;;1.77;;
58412;SDS011;44209;52.952;6.790;2023-03-11T08:05:50;5.27;;;1.63;;
58412;SDS011;44209;52.952;6.790;2023-03-11T08:08:16;4.77;;;1.70;;
58412;SDS011;44209;52.952;6.790;2023-03-11T08:10:42;9.93;;;2.13;;
58412;SDS011;44209;52.952;6.790;2023-03-11T08:13:08;6.33;;;1.80;;
58412;SDS011;44209;52.952;6.790;2023-03-11T08:15:35;4.90;;;1.67;;
58412;SDS011;44209;52.952;6.790;2023-03-11T08:18:02;4.83;;;1.70;;
58412;SDS011;44209;52.952;6.790;2023-03-11T08:20:28;4.13;;;1.67;;
58412;SDS011;44209;52.952;6.790;2023-03-11T08:22:53;2.63;;;1.53;;
58412;SDS011;44209;52.952;6.790;2023-03-11T08:25:19;2.97;;;1.60;;
58412;SDS011;44209;52.952;6.790;2023-03-11T08:27:45;7.73;;;1.83;;
58412;SDS011;44209;52.952;6.790;2023-03-11T08:30:11;4.20;;;1.40;;
58412;SDS011;44209;52.952;6.790;2023-03-11T08:32:37;7.97;;;1.80;;
58412;SDS011;44209;52.952;6.790;2023-03-11T08:35:02;5.27;;;1.67;;
58412;SDS011;44209;52.952;6.790;2023-03-11T08:37:28;5.87;;;1.60;;
58412;SDS011;44209;52.952;6.790;2023-03-11T08:39:55;4.30;;;1.80;;
58412;SDS011;44209;52.952;6.790;2023-03-11T08:42:21;3.27;;;1.40;;
58412;SDS011;44209;52.952;6.790;2023-03-11T08:44:47;5.40;;;1.73;;
58412;SDS011;44209;52.952;6.790;2023-03-11T08:47:12;6.17;;;1.70;;
58412;SDS011;44209;52.952;6.790;2023-03-11T08:49:38;5.50;;;1.83;;
58412;SDS011;44209;52.952;6.790;2023-03-11T08:52:05;4.20;;;1.80;;
58412;SDS011;44209;52.952;6.790;2023-03-11T08:54:31;6.23;;;1.77;;
58412;SDS011;44209;52.952;6.790;2023-03-11T08:56:57;5.00;;;1.80;;
58412;SDS011;44209;52.952;6.790;2023-03-11T08:59:27;4.17;;;1.70;;
58412;SDS011;44209;52.952;6.790;2023-03-11T09:01:53;7.47;;;1.90;;
58412;SDS011;44209;52.952;6.790;2023-03-11T09:04:19;3.97;;;1.43;;
58412;SDS011;44209;52.952;6.790;2023-03-11T09:06:45;5.17;;;1.80;;
58412;SDS011;44209;52.952;6.790;2023-03-11T09:09:13;3.30;;;1.60;;
58412;SDS011;44209;52.952;6.790;2023-03-11T09:11:46;5.23;;;1.77;;
58412;SDS011;44209;52.952;6.790;2023-03-11T09:14:12;5.90;;;1.60;;
58412;SDS011;44209;52.952;6.790;2023-03-11T09:16:38;4.87;;;1.67;;
58412;SDS011;44209;52.952;6.790;2023-03-11T09:19:04;3.20;;;1.60;;
58412;SDS011;44209;52.952;6.790;2023-03-11T09:21:32;7.13;;;1.77;;
58412;SDS011;44209;52.952;6.790;2023-03-11T09:23:59;3.23;;;1.60;;
58412;SDS011;44209;52.952;6.790;2023-03-11T09:26:26;5.13;;;1.90;;
58412;SDS011;44209;52.952;6.790;2023-03-11T09:28:51;5.03;;;1.93;;
58412;SDS011;44209;52.952;6.790;2023-03-11T09:31:17;3.77;;;1.80;;
58412;SDS011;44209;52.952;6.790;2023-03-11T09:33:43;4.23;;;1.37;;
58412;SDS011;44209;52.952;6.790;2023-03-11T09:36:11;6.63;;;1.87;;
58412;SDS011;44209;52.952;6.790;2023-03-11T09:38:38;2.97;;;1.57;;
58412;SDS011;44209;52.952;6.790;2023-03-11T09:44:08;3.13;;;1.67;;
58412;SDS011;44209;52.952;6.790;2023-03-11T09:46:54;6.23;;;2.27;;
58412;SDS011;44209;52.952;6.790;2023-03-11T09:51:59;7.13;;;1.60;;
58412;SDS011;44209;52.952;6.790;2023-03-11T09:54:35;3.27;;;1.80;;
58412;SDS011;44209;52.952;6.790;2023-03-11T09:57:14;8.75;;;1.90;;
58412;SDS011;44209;52.952;6.790;2023-03-11T09:59:43;4.82;;;1.50;;
58412;SDS011;44209;52.952;6.790;2023-03-11T10:02:11;9.07;;;1.90;;
58412;SDS011;44209;52.952;6.790;2023-03-11T10:07:16;4.85;;;1.52;;
58412;SDS011;44209;52.952;6.790;2023-03-11T10:09:50;3.83;;;1.47;;
58412;SDS011;44209;52.952;6.790;2023-03-11T10:20:17;4.47;;;1.50;;
58412;SDS011;44209;52.952;6.790;2023-03-11T10:26:02;5.00;;;1.67;;
58412;SDS011;44209;52.952;6.790;2023-03-11T10:28:23;4.40;;;1.83;;
58412;SDS011;44209;52.952;6.790;2023-03-11T10:34:27;6.23;;;1.90;;
58412;SDS011;44209;52.952;6.790;2023-03-11T10:37:17;4.97;;;2.00;;
58412;SDS011;44209;52.952;6.790;2023-03-11T10:39:49;4.80;;;1.50;;
58412;SDS011;44209;52.952;6.790;2023-03-11T10:42:16;4.67;;;1.83;;
58412;SDS011;44209;52.952;6.790;2023-03-11T10:44:48;4.47;;;2.10;;
58412;SDS011;44209;52.952;6.790;2023-03-11T10:47:21;4.33;;;1.60;;
58412;SDS011;44209;52.952;6.790;2023-03-11T10:49:49;4.13;;;1.40;;
58412;SDS011;44209;52.952;6.790;2023-03-11T10:52:17;2.57;;;1.70;;
58412;SDS011;44209;52.952;6.790;2023-03-11T10:54:46;2.93;;;1.40;;
58412;SDS011;44209;52.952;6.790;2023-03-11T10:57:29;3.83;;;1.80;;
58412;SDS011;44209;52.952;6.790;2023-03-11T10:59:58;5.63;;;1.60;;
58412;SDS011;44209;52.952;6.790;2023-03-11T11:10:30;6.30;;;1.77;;
58412;SDS011;44209;52.952;6.790;2023-03-11T11:13:16;4.03;;;1.70;;
58412;SDS011;44209;52.952;6.790;2023-03-11T11:21:26;3.17;;;1.80;;
58412;SDS011;44209;52.952;6.790;2023-03-11T11:26:27;7.20;;;2.13;;
58412;SDS011;44209;52.952;6.790;2023-03-11T11:29:12;6.37;;;1.50;;
58412;SDS011;44209;52.952;6.790;2023-03-11T11:31:40;5.57;;;1.50;;
58412;SDS011;44209;52.952;6.790;2023-03-11T11:36:51;5.57;;;1.80;;
58412;SDS011;44209;52.952;6.790;2023-03-11T11:39:18;4.20;;;1.47;;
58412;SDS011;44209;52.952;6.790;2023-03-11T11:41:45;5.30;;;1.90;;
58412;SDS011;44209;52.952;6.790;2023-03-11T11:44:14;8.63;;;1.70;;
58412;SDS011;44209;52.952;6.790;2023-03-11T11:46:53;2.78;;;1.45;;
58412;SDS011;44209;52.952;6.790;2023-03-11T11:49:26;4.30;;;1.50;;
58412;SDS011;44209;52.952;6.790;2023-03-11T11:52:01;3.27;;;1.50;;
58412;SDS011;44209;52.952;6.790;2023-03-11T11:54:45;5.00;;;1.40;;
58412;SDS011;44209;52.952;6.790;2023-03-11T11:57:17;3.87;;;1.73;;
58412;SDS011;44209;52.952;6.790;2023-03-11T11:59:45;4.80;;;1.80;;
58412;SDS011;44209;52.952;6.790;2023-03-11T12:10:53;3.93;;;1.47;;
58412;SDS011;44209;52.952;6.790;2023-03-11T12:13:40;4.03;;;1.45;;
58412;SDS011;44209;52.952;6.790;2023-03-11T12:16:30;3.93;;;1.70;;
58412;SDS011;44209;52.952;6.790;2023-03-11T12:24:29;4.20;;;1.30;;
58412;SDS011;44209;52.952;6.790;2023-03-11T12:27:04;5.43;;;1.40;;
58412;SDS011;44209;52.952;6.790;2023-03-11T12:29:44;6.97;;;1.67;;
58412;SDS011;44209;52.952;6.790;2023-03-11T12:32:31;5.60;;;1.50;;
58412;SDS011;44209;52.952;6.790;2023-03-11T12:35:16;3.80;;;1.20;;
58412;SDS011;44209;52.952;6.790;2023-03-11T12:45:54;3.80;;;1.40;;
58412;SDS011;44209;52.952;6.790;2023-03-11T12:50:58;3.78;;;1.30;;
58412;SDS011;44209;52.952;6.790;2023-03-11T12:53:43;5.67;;;1.60;;
58412;SDS011;44209;52.952;6.790;2023-03-11T13:01:34;4.70;;;1.23;;
58412;SDS011;44209;52.952;6.790;2023-03-11T13:07:28;5.50;;;1.20;;
58412;SDS011;44209;52.952;6.790;2023-03-11T13:12:49;8.40;;;1.30;;
58412;SDS011;44209;52.952;6.790;2023-03-11T13:20:49;2.33;;;0.90;;
58412;SDS011;44209;52.952;6.790;2023-03-11T13:43:02;1.90;;;0.80;;
58412;SDS011;44209;52.952;6.790;2023-03-11T13:45:52;4.50;;;1.10;;
58412;SDS011;44209;52.952;6.790;2023-03-11T13:48:27;3.53;;;1.03;;
58412;SDS011;44209;52.952;6.790;2023-03-11T13:51:03;3.42;;;1.13;;
58412;SDS011;44209;52.952;6.790;2023-03-11T13:56:45;1.83;;;0.80;;
58412;SDS011;44209;52.952;6.790;2023-03-11T13:59:29;1.97;;;0.77;;
58412;SDS011;44209;52.952;6.790;2023-03-11T14:04:33;3.90;;;1.17;;
58412;SDS011;44209;52.952;6.790;2023-03-11T14:07:11;1.93;;;0.80;;
58412;SDS011;44209;52.952;6.790;2023-03-11T14:09:38;2.33;;;1.00;;
58412;SDS011;44209;52.952;6.790;2023-03-11T14:12:04;3.03;;;0.93;;
58412;SDS011;44209;52.952;6.790;2023-03-11T14:14:53;2.70;;;1.00;;
58412;SDS011;44209;52.952;6.790;2023-03-11T14:17:24;4.93;;;1.00;;
58412;SDS011;44209;52.952;6.790;2023-03-11T14:20:09;2.53;;;0.80;;
58412;SDS011;44209;52.952;6.790;2023-03-11T14:22:42;2.80;;;0.80;;
58412;SDS011;44209;52.952;6.790;2023-03-11T14:25:13;3.97;;;1.03;;
58412;SDS011;44209;52.952;6.790;2023-03-11T14:27:50;3.47;;;0.77;;
58412;SDS011;44209;52.952;6.790;2023-03-11T14:30:28;2.73;;;1.00;;
58412;SDS011;44209;52.952;6.790;2023-03-11T14:32:56;4.90;;;1.13;;
58412;SDS011;44209;52.952;6.790;2023-03-11T14:35:42;3.23;;;0.83;;
58412;SDS011;44209;52.952;6.790;2023-03-11T14:38:41;3.20;;;0.80;;
58412;SDS011;44209;52.952;6.790;2023-03-11T14:41:09;2.83;;;0.90;;
58412;SDS011;44209;52.952;6.790;2023-03-11T14:43:39;6.37;;;0.90;;
58412;SDS011;44209;52.952;6.790;2023-03-11T14:46:09;5.50;;;1.03;;
58412;SDS011;44209;52.952;6.790;2023-03-11T14:48:44;2.97;;;1.00;;
58412;SDS011;44209;52.952;6.790;2023-03-11T14:51:14;2.03;;;0.90;;
58412;SDS011;44209;52.952;6.790;2023-03-11T14:53:52;2.53;;;1.20;;
58412;SDS011;44209;52.952;6.790;2023-03-11T14:56:22;2.57;;;0.80;;
58412;SDS011;44209;52.952;6.790;2023-03-11T15:01:39;2.63;;;0.90;;
58412;SDS011;44209;52.952;6.790;2023-03-11T15:04:09;2.23;;;0.80;;
58412;SDS011;44209;52.952;6.790;2023-03-11T15:06:37;3.13;;;0.90;;
58412;SDS011;44209;52.952;6.790;2023-03-11T15:09:07;3.63;;;0.80;;
58412;SDS011;44209;52.952;6.790;2023-03-11T15:16:55;2.60;;;1.10;;
58412;SDS011;44209;52.952;6.790;2023-03-11T15:19:53;2.53;;;1.00;;
58412;SDS011;44209;52.952;6.790;2023-03-11T15:24:55;3.43;;;1.00;;
58412;SDS011;44209;52.952;6.790;2023-03-11T15:27:32;4.70;;;1.10;;
58412;SDS011;44209;52.952;6.790;2023-03-11T15:30:00;4.37;;;0.97;;
58412;SDS011;44209;52.952;6.790;2023-03-11T15:35:12;4.50;;;1.00;;
58412;SDS011;44209;52.952;6.790;2023-03-11T15:37:50;2.23;;;0.80;;
58412;SDS011;44209;52.952;6.790;2023-03-11T15:40:36;4.33;;;1.20;;
58412;SDS011;44209;52.952;6.790;2023-03-11T15:43:18;2.33;;;1.00;;
58412;SDS011;44209;52.952;6.790;2023-03-11T15:45:48;3.63;;;1.20;;
58412;SDS011;44209;52.952;6.790;2023-03-11T15:48:15;2.77;;;1.30;;
58412;SDS011;44209;52.952;6.790;2023-03-11T15:50:48;5.07;;;1.10;;
58412;SDS011;44209;52.952;6.790;2023-03-11T15:53:16;4.00;;;1.20;;
58412;SDS011;44209;52.952;6.790;2023-03-11T15:55:42;1.53;;;0.90;;
58412;SDS011;44209;52.952;6.790;2023-03-11T15:58:08;1.80;;;1.10;;
58412;SDS011;44209;52.952;6.790;2023-03-11T16:00:44;3.13;;;1.13;;
58412;SDS011;44209;52.952;6.790;2023-03-11T16:03:15;2.20;;;1.00;;
58412;SDS011;44209;52.952;6.790;2023-03-11T16:05:41;4.03;;;1.60;;
58412;SDS011;44209;52.952;6.790;2023-03-11T16:08:07;3.53;;;1.10;;
58412;SDS011;44209;52.952;6.790;2023-03-11T16:10:34;2.97;;;1.10;;
58412;SDS011;44209;52.952;6.790;2023-03-11T16:13:01;4.43;;;1.40;;
58412;SDS011;44209;52.952;6.790;2023-03-11T16:15:34;2.60;;;1.20;;
58412;SDS011;44209;52.952;6.790;2023-03-11T16:18:03;1.77;;;1.27;;
58412;SDS011;44209;52.952;6.790;2023-03-11T16:20:52;4.63;;;1.30;;
58412;SDS011;44209;52.952;6.790;2023-03-11T16:23:19;4.67;;;1.60;;
58412;SDS011;44209;52.952;6.790;2023-03-11T16:25:45;7.63;;;1.73;;
58412;SDS011;44209;52.952;6.790;2023-03-11T16:28:12;1.57;;;1.20;;
58412;SDS011;44209;52.952;6.790;2023-03-11T16:30:39;3.17;;;1.40;;
58412;SDS011;44209;52.952;6.790;2023-03-11T16:33:05;2.70;;;1.57;;
58412;SDS011;44209;52.952;6.790;2023-03-11T16:35:31;4.40;;;1.20;;
58412;SDS011;44209;52.952;6.790;2023-03-11T16:37:57;3.07;;;1.00;;
58412;SDS011;44209;52.952;6.790;2023-03-11T16:40:24;3.00;;;0.90;;
58412;SDS011;44209;52.952;6.790;2023-03-11T16:42:57;3.30;;;0.90;;
58412;SDS011;44209;52.952;6.790;2023-03-11T16:45:25;2.00;;;0.67;;
58412;SDS011;44209;52.952;6.790;2023-03-11T16:47:51;2.77;;;0.80;;
58412;SDS011;44209;52.952;6.790;2023-03-11T16:50:17;3.03;;;0.80;;
58412;SDS011;44209;52.952;6.790;2023-03-11T16:52:45;2.03;;;0.80;;
58412;SDS011;44209;52.952;6.790;2023-03-11T16:55:11;4.67;;;0.80;;
58412;SDS011;44209;52.952;6.790;2023-03-11T16:57:37;1.70;;;0.73;;
58412;SDS011;44209;52.952;6.790;2023-03-11T17:00:04;1.80;;;0.67;;
58412;SDS011;44209;52.952;6.790;2023-03-11T17:02:31;2.20;;;0.70;;
58412;SDS011;44209;52.952;6.790;2023-03-11T17:04:57;1.63;;;0.70;;